Augusta, Indiana
Current Conditions -  °F | °C
As of 11:15 AM on Friday 19 Dec 2014 (Local Time) from KHNB Reporting Station
Few Clouds Few Clouds  
Wind Chill: 30°   Ceiling: Unl
Heat Index: 30°   Visibility: 8mi
Dew Point: 21°   Wind: 3mph
Humidity: 69%   Direction: 50°NE
Pressure: 30.31"   Gusts: NA
Location:  38.3488°N, 87.2217°W
Report Text: KHNB 191715Z AUTO 05003KT 8SM FEW017 M01/M06 A3031 RMK AO1
Loading
Personal Weather Stations






























Interactive Weather Map New forecast layout! Learn more

10-Day Weather Forecast

Advertisements
Track Severe Weather on mobile